Time;durP1;ratioP1;P1;durP2;ratioP2;P2;SDS_P1;SDS_P2;PMS_P1;PMS_P2;Temp;Humidity;BMP_temperature;BMP_pressure;BME280_temperature;BME280_humidity;BME280_pressure;Samples;Min_cycle;Max_cycle;Signal;HPM_P1;HPM_P2
2022/07/29 07:36:30;;;;;;;5.90;1.98;;;;;;;;;;4916246;29;20489;-84
2022/07/29 07:40:13;;;;;;;5.35;2.03;;;;;;;;;;4886693;29;20056;-85
2022/07/29 07:49:37;;;;;;;3.53;1.73;;;;;;;;;;4796932;29;20259;-86
2022/07/29 07:53:17;;;;;;;4.53;1.70;;;;;;;;;;4803498;29;20464;-84
2022/07/29 07:57:18;;;;;;;4.82;1.75;;;;;;;;;;4766925;29;20641;-84
2022/07/29 08:00:09;;;;;;;5.57;1.73;;;;;;;;;;4792773;29;20073;-82
2022/07/29 08:03:36;;;;;;;8.20;2.08;;;;;;;;;;4808878;29;20510;-85
2022/07/29 08:07:57;;;;;;;5.32;1.80;;;;;;;;;;4795838;29;20054;-87
2022/07/29 08:11:41;;;;;;;7.18;1.92;;;;;;;;;;4842407;29;20057;-81
2022/07/29 08:14:19;;;;;;;3.92;1.70;;;;;;;;;;4846550;29;20122;-82
2022/07/29 08:17:01;;;;;;;3.92;2.13;;;;;;;;;;4832356;29;20140;-83
2022/07/29 08:20:25;;;;;;;5.25;2.00;;;;;;;;;;4865654;29;20519;-84
2022/07/29 08:23:11;;;;;;;4.40;1.90;;;;;;;;;;4813905;29;21709;-85
2022/07/29 08:25:45;;;;;;;5.25;1.90;;;;;;;;;;4863108;29;20065;-86
2022/07/29 08:28:19;;;;;;;5.85;2.15;;;;;;;;;;4851456;29;20102;-85
2022/07/29 08:30:59;;;;;;;7.63;1.90;;;;;;;;;;4871459;29;20060;-84
2022/07/29 08:34:15;;;;;;;6.00;1.80;;;;;;;;;;4859304;29;20057;-83
2022/07/29 08:36:43;;;;;;;4.25;1.95;;;;;;;;;;4859656;29;20061;-83
2022/07/29 08:39:17;;;;;;;7.78;1.85;;;;;;;;;;4859148;29;20060;-82
2022/07/29 08:41:46;;;;;;;6.35;1.92;;;;;;;;;;4859446;29;20064;-82
2022/07/29 08:44:38;;;;;;;5.28;1.77;;;;;;;;;;4875011;29;20060;-82
2022/07/29 08:47:29;;;;;;;5.35;1.65;;;;;;;;;;4874912;29;20373;-81
2022/07/29 08:49:57;;;;;;;4.30;1.83;;;;;;;;;;4876104;29;20064;-82
2022/07/29 08:52:26;;;;;;;5.20;1.60;;;;;;;;;;4875879;29;20057;-81
2022/07/29 08:54:54;;;;;;;5.85;1.60;;;;;;;;;;4845061;29;20061;-83
2022/07/29 08:57:28;;;;;;;6.57;1.75;;;;;;;;;;4874309;29;20045;-83
2022/07/29 09:00:08;;;;;;;5.60;1.52;;;;;;;;;;4930866;28;20066;-83
2022/07/29 09:02:45;;;;;;;6.53;1.80;;;;;;;;;;4968610;28;20054;-83
2022/07/29 09:05:15;;;;;;;5.50;1.92;;;;;;;;;;4940720;28;20406;-83
2022/07/29 09:07:50;;;;;;;5.32;1.60;;;;;;;;;;4971863;28;21271;-83
2022/07/29 09:10:18;;;;;;;4.32;1.70;;;;;;;;;;4955880;28;20078;-82
2022/07/29 09:12:46;;;;;;;7.03;2.00;;;;;;;;;;4949230;28;20077;-82
2022/07/29 09:15:18;;;;;;;5.68;1.80;;;;;;;;;;4975656;28;20057;-82
2022/07/29 09:17:51;;;;;;;5.25;1.83;;;;;;;;;;4973500;28;20170;-83
2022/07/29 09:20:22;;;;;;;6.53;1.65;;;;;;;;;;4977186;28;20078;-83
2022/07/29 09:22:55;;;;;;;4.05;1.95;;;;;;;;;;4974378;28;20047;-82
2022/07/29 09:25:38;;;;;;;6.40;1.80;;;;;;;;;;4994019;28;20171;-83
2022/07/29 09:28:14;;;;;;;4.03;1.55;;;;;;;;;;5001951;28;20689;-82
2022/07/29 09:30:54;;;;;;;3.53;1.50;;;;;;;;;;5029361;28;20465;-82
2022/07/29 09:33:31;;;;;;;3.40;1.80;;;;;;;;;;4997388;28;20049;-86
2022/07/29 09:36:05;;;;;;;3.10;1.40;;;;;;;;;;5002116;28;20057;-86
2022/07/29 09:38:40;;;;;;;4.28;1.52;;;;;;;;;;5017304;28;20049;-87
2022/07/29 09:42:07;;;;;;;8.18;1.83;;;;;;;;;;5018585;28;20057;-88
2022/07/29 09:45:47;;;;;;;4.80;1.88;;;;;;;;;;5022622;28;20064;-87
2022/07/29 09:49:14;;;;;;;;;;;;;;;;;;4998611;28;20126;-84
2022/07/29 09:53:11;;;;;;;4.10;1.10;;;;;;;;;;4983262;28;19973;-85
2022/07/29 09:57:31;;;;;;;5.70;1.58;;;;;;;;;;4983185;28;20050;-86
2022/07/29 10:01:51;;;;;;;5.45;1.58;;;;;;;;;;4917118;29;20047;-85
2022/07/29 10:05:44;;;;;;;5.43;1.27;;;;;;;;;;4898777;29;20126;-85
2022/07/29 10:08:50;;;;;;;;;;;;;;;;;;4900746;29;20139;-83
2022/07/29 10:11:18;;;;;;;5.10;1.52;;;;;;;;;;4889946;29;20536;-83
2022/07/29 10:13:48;;;;;;;4.13;1.40;;;;;;;;;;4904495;29;20091;-83
2022/07/29 10:16:21;;;;;;;5.75;1.60;;;;;;;;;;4896310;29;20044;-83
2022/07/29 10:18:50;;;;;;;5.15;1.40;;;;;;;;;;4896949;29;21020;-83
2022/07/29 10:21:19;;;;;;;5.78;1.67;;;;;;;;;;4894656;29;20911;-83
2022/07/29 10:24:04;;;;;;;5.95;1.27;;;;;;;;;;4896128;29;20056;-84
2022/07/29 10:27:00;;;;;;;3.45;1.17;;;;;;;;;;4896300;29;20048;-84
2022/07/29 10:29:35;;;;;;;5.22;1.38;;;;;;;;;;4896842;29;20157;-84
2022/07/29 10:32:19;;;;;;;4.00;1.30;;;;;;;;;;4909967;29;20143;-86
2022/07/29 10:35:44;;;;;;;7.53;1.50;;;;;;;;;;4906428;29;20062;-85
2022/07/29 10:38:54;;;;;;;3.78;1.42;;;;;;;;;;4903767;29;20067;-86
2022/07/29 11:13:42;;;;;;;3.28;1.50;;;;;;;;;;4999820;28;20084;-85
2022/07/29 11:16:25;;;;;;;5.75;1.40;;;;;;;;;;5021648;28;20058;-84
2022/07/29 11:19:14;;;;;;;5.80;1.33;;;;;;;;;;5001254;28;20096;-85
2022/07/29 11:22:08;;;;;;;4.15;1.27;;;;;;;;;;5053083;28;20064;-82
2022/07/29 11:25:13;;;;;;;3.10;1.30;;;;;;;;;;5028849;28;20189;-84
2022/07/29 11:27:46;;;;;;;5.47;1.60;;;;;;;;;;5033091;28;20056;-86
2022/07/29 11:30:53;;;;;;;6.15;1.38;;;;;;;;;;5019493;28;20049;-86
2022/07/29 11:33:45;;;;;;;25.23;2.00;;;;;;;;;;5023346;28;20328;-84
2022/07/29 11:36:23;;;;;;;4.70;1.55;;;;;;;;;;5029330;28;20057;-83
2022/07/29 11:39:26;;;;;;;7.85;1.40;;;;;;;;;;5037927;28;20052;-83
2022/07/29 11:42:24;;;;;;;8.68;1.73;;;;;;;;;;5014102;28;20159;-84
2022/07/29 11:45:06;;;;;;;6.60;1.38;;;;;;;;;;5015139;28;20052;-84
2022/07/29 11:47:59;;;;;;;2.35;1.08;;;;;;;;;;5041216;28;20825;-84
2022/07/29 11:50:48;;;;;;;4.38;1.48;;;;;;;;;;5013045;28;20083;-84
2022/07/29 11:53:15;;;;;;;5.70;1.55;;;;;;;;;;5023401;28;20049;-83
2022/07/29 11:55:43;;;;;;;4.65;1.60;;;;;;;;;;5046740;28;20044;-84
2022/07/29 11:58:23;;;;;;;3.25;1.27;;;;;;;;;;5034857;28;20075;-83
2022/07/29 12:01:14;;;;;;;3.42;1.27;;;;;;;;;;5024418;28;20338;-85
2022/07/29 12:04:06;;;;;;;7.15;1.25;;;;;;;;;;5034542;28;20053;-83
2022/07/29 12:06:35;;;;;;;3.63;1.35;;;;;;;;;;5041413;28;20383;-84
2022/07/29 12:09:07;;;;;;;4.32;1.48;;;;;;;;;;5036097;28;20060;-85
2022/07/29 12:11:41;;;;;;;4.85;1.40;;;;;;;;;;5039164;28;20053;-84
2022/07/29 12:14:33;;;;;;;2.70;1.17;;;;;;;;;;5026781;28;20448;-85
2022/07/29 12:17:01;;;;;;;3.08;1.05;;;;;;;;;;5026083;28;20080;-83
2022/07/29 12:19:45;;;;;;;17.85;2.30;;;;;;;;;;5040600;28;20203;-87
2022/07/29 12:23:02;;;;;;;4.70;1.70;;;;;;;;;;5020238;28;20061;-83
2022/07/29 12:26:40;;;;;;;6.25;1.60;;;;;;;;;;5026115;28;20045;-83
2022/07/29 12:35:07;;;;;;;4.15;1.10;;;;;;;;;;4933489;28;20407;-86
2022/07/29 12:39:47;;;;;;;5.65;1.73;;;;;;;;;;4859829;29;20087;-83
2022/07/29 12:44:08;;;;;;;5.25;1.88;;;;;;;;;;4791313;29;20092;-83
2022/07/29 12:46:36;;;;;;;6.15;1.38;;;;;;;;;;4812152;29;20102;-84
2022/07/29 12:50:12;;;;;;;;;;;;;;;;;;4813939;29;20054;-86
2022/07/29 13:08:41;;;;;;;4.47;1.20;;;;;;;;;;4756495;30;20529;-84
2022/07/29 13:11:27;;;;;;;5.15;1.52;;;;;;;;;;4800163;29;20071;-84
2022/07/29 13:14:36;;;;;;;5.72;1.65;;;;;;;;;;4874367;29;20049;-84
2022/07/29 13:17:15;;;;;;;5.25;2.03;;;;;;;;;;4881164;29;20049;-83
2022/07/29 13:19:49;;;;;;;6.15;1.60;;;;;;;;;;4885625;29;20205;-84
2022/07/29 13:22:20;;;;;;;5.83;1.80;;;;;;;;;;4901951;29;20497;-84
2022/07/29 13:24:50;;;;;;;5.32;1.60;;;;;;;;;;4950330;28;20314;-83
2022/07/29 13:27:19;;;;;;;7.55;1.70;;;;;;;;;;4955146;28;20115;-84
2022/07/29 13:29:50;;;;;;;7.40;2.10;;;;;;;;;;4987314;28;20112;-84
2022/07/29 13:32:18;;;;;;;4.55;1.90;;;;;;;;;;4958607;28;20116;-84
2022/07/29 13:34:58;;;;;;;2.90;1.40;;;;;;;;;;4990819;28;20062;-83
2022/07/29 13:37:49;;;;;;;7.68;1.60;;;;;;;;;;5028755;28;20145;-84
2022/07/29 13:40:43;;;;;;;5.03;1.60;;;;;;;;;;5036721;28;20083;-83
2022/07/29 13:43:12;;;;;;;3.78;1.50;;;;;;;;;;5034169;28;20476;-84
2022/07/29 13:45:39;;;;;;;8.80;1.67;;;;;;;;;;5036467;28;20076;-84
2022/07/29 13:48:07;;;;;;;7.30;2.00;;;;;;;;;;5032255;28;20071;-85
2022/07/29 13:51:25;;;;;;;5.53;1.70;;;;;;;;;;5029682;28;20044;-84
2022/07/29 13:53:53;;;;;;;5.45;1.88;;;;;;;;;;5038923;28;20057;-85
2022/07/29 13:56:21;;;;;;;7.03;1.60;;;;;;;;;;5043577;28;20053;-85
2022/07/29 13:58:49;;;;;;;5.57;1.58;;;;;;;;;;5031877;28;20356;-84
2022/07/29 14:01:17;;;;;;;12.60;1.90;;;;;;;;;;5034474;28;20049;-84
2022/07/29 14:03:45;;;;;;;4.88;1.60;;;;;;;;;;5016469;28;20052;-82
2022/07/29 14:06:13;;;;;;;7.45;1.73;;;;;;;;;;5022436;28;20529;-84
2022/07/29 14:08:41;;;;;;;6.10;1.75;;;;;;;;;;5041795;28;20072;-84
2022/07/29 14:11:13;;;;;;;6.45;1.60;;;;;;;;;;5020767;28;20123;-84
2022/07/29 14:13:41;;;;;;;4.07;1.60;;;;;;;;;;5018119;28;20505;-81
2022/07/29 14:16:35;;;;;;;3.03;1.60;;;;;;;;;;5016173;28;20420;-84
2022/07/29 14:19:10;;;;;;;5.70;1.48;;;;;;;;;;5016020;28;20176;-83
2022/07/29 14:21:38;;;;;;;4.97;1.63;;;;;;;;;;5032940;28;20053;-83
2022/07/29 14:24:06;;;;;;;5.22;1.48;;;;;;;;;;5020126;28;20060;-84
2022/07/29 14:26:47;;;;;;;5.93;1.75;;;;;;;;;;5028962;28;20103;-83
2022/07/29 14:29:40;;;;;;;5.43;1.60;;;;;;;;;;5032966;28;20045;-82
2022/07/29 14:32:14;;;;;;;5.50;1.60;;;;;;;;;;5007484;28;20052;-83
2022/07/29 14:34:41;;;;;;;4.60;1.53;;;;;;;;;;5003648;28;20072;-83
2022/07/29 14:37:09;;;;;;;7.13;2.08;;;;;;;;;;5017036;28;20041;-83
2022/07/29 14:39:41;;;;;;;6.43;1.73;;;;;;;;;;5035104;28;20143;-83
2022/07/29 14:42:13;;;;;;;6.07;1.42;;;;;;;;;;4986702;28;20068;-83
2022/07/29 14:44:47;;;;;;;4.13;1.45;;;;;;;;;;5033419;28;20118;-84
2022/07/29 14:47:15;;;;;;;2.85;1.45;;;;;;;;;;5007332;28;20069;-83
2022/07/29 14:49:47;;;;;;;4.10;1.33;;;;;;;;;;5034703;28;20661;-83
2022/07/29 14:52:15;;;;;;;5.80;1.60;;;;;;;;;;5029518;28;20060;-83
2022/07/29 14:54:43;;;;;;;6.85;1.70;;;;;;;;;;5034834;28;20057;-83
2022/07/29 14:57:11;;;;;;;4.22;1.70;;;;;;;;;;5032664;28;20599;-85
2022/07/29 14:59:43;;;;;;;7.40;2.15;;;;;;;;;;5015556;28;20112;-84
2022/07/29 15:02:16;;;;;;;4.03;1.50;;;;;;;;;;5034274;28;20056;-84
2022/07/29 15:08:17;;;;;;;5.93;2.03;;;;;;;;;;5024533;28;20119;-82
2022/07/29 15:11:09;;;;;;;6.57;1.63;;;;;;;;;;5032332;28;20056;-83
2022/07/29 15:13:38;;;;;;;5.65;1.90;;;;;;;;;;5017267;28;20076;-84
2022/07/29 15:16:32;;;;;;;7.97;2.60;;;;;;;;;;4997068;28;20643;-85
2022/07/29 15:19:03;;;;;;;7.45;1.95;;;;;;;;;;4982061;28;20048;-83
2022/07/29 15:21:32;;;;;;;6.35;2.33;;;;;;;;;;5007225;28;20134;-85
2022/07/29 15:24:01;;;;;;;5.10;1.75;;;;;;;;;;4965693;28;20168;-84
2022/07/29 15:26:29;;;;;;;6.30;2.28;;;;;;;;;;5013980;28;20062;-84
2022/07/29 15:28:57;;;;;;;7.97;1.95;;;;;;;;;;4996060;28;21033;-84
2022/07/29 15:31:25;;;;;;;7.32;2.13;;;;;;;;;;5013241;28;20164;-84
2022/07/29 15:35:24;;;;;;;4.72;1.63;;;;;;;;;;4988898;28;20154;-83
2022/07/29 15:38:00;;;;;;;5.88;2.05;;;;;;;;;;4991192;28;20717;-83
2022/07/29 15:43:22;;;;;;;3.15;1.52;;;;;;;;;;4990632;28;20062;-83
2022/07/29 15:48:39;;;;;;;3.50;1.77;;;;;;;;;;4993637;28;20136;-85
2022/07/29 15:51:34;;;;;;;7.78;1.90;;;;;;;;;;4998786;28;20069;-85
2022/07/29 15:54:07;;;;;;;4.78;1.60;;;;;;;;;;5003495;28;20800;-86
2022/07/29 15:56:49;;;;;;;5.10;1.52;;;;;;;;;;4993052;28;20543;-86
2022/07/29 16:08:44;;;;;;;5.45;1.90;;;;;;;;;;4997785;28;20058;-84
2022/07/29 16:11:16;;;;;;;5.75;1.80;;;;;;;;;;4995272;28;20740;-84
2022/07/29 16:13:43;;;;;;;5.38;1.80;;;;;;;;;;4981060;28;20056;-84
2022/07/29 16:16:14;;;;;;;6.70;2.22;;;;;;;;;;4969254;28;20046;-84
2022/07/29 16:18:41;;;;;;;9.25;1.70;;;;;;;;;;4995624;28;20054;-84
2022/07/29 16:21:10;;;;;;;7.47;1.80;;;;;;;;;;4980204;28;20058;-84
2022/07/29 16:24:02;;;;;;;5.93;2.00;;;;;;;;;;4991967;28;20046;-84
2022/07/29 16:26:32;;;;;;;6.88;1.85;;;;;;;;;;5005625;28;20050;-83
2022/07/29 16:28:59;;;;;;;5.50;1.80;;;;;;;;;;4976579;28;20054;-83
2022/07/29 16:31:31;;;;;;;5.47;1.58;;;;;;;;;;5021674;28;20068;-84
2022/07/29 16:33:59;;;;;;;8.80;2.22;;;;;;;;;;4992699;28;20053;-83
2022/07/29 16:36:53;;;;;;;5.97;2.28;;;;;;;;;;5026686;28;20053;-84
2022/07/29 16:39:21;;;;;;;7.05;1.67;;;;;;;;;;5022849;28;20052;-83
2022/07/29 16:41:49;;;;;;;6.82;1.75;;;;;;;;;;5025392;28;20463;-84
2022/07/29 16:44:17;;;;;;;5.43;1.67;;;;;;;;;;4981863;28;20117;-83
2022/07/29 16:46:45;;;;;;;4.90;1.88;;;;;;;;;;5010912;28;20081;-84
2022/07/29 16:49:21;;;;;;;4.53;1.70;;;;;;;;;;5011164;28;20128;-82
2022/07/29 16:52:15;;;;;;;3.97;1.50;;;;;;;;;;5025504;28;20050;-83
2022/07/29 16:54:51;;;;;;;4.68;1.60;;;;;;;;;;5008853;28;20053;-84
2022/07/29 16:57:20;;;;;;;4.47;1.50;;;;;;;;;;5018479;28;20080;-84
2022/07/29 16:59:50;;;;;;;5.85;2.00;;;;;;;;;;5022070;28;20624;-85
2022/07/29 17:02:17;;;;;;;7.90;1.75;;;;;;;;;;5006305;28;20058;-84
2022/07/29 17:04:45;;;;;;;5.25;1.70;;;;;;;;;;5017305;28;20054;-84
2022/07/29 17:07:14;;;;;;;5.07;1.63;;;;;;;;;;5019507;28;20088;-84
2022/07/29 17:09:43;;;;;;;5.15;1.88;;;;;;;;;;4986798;28;20068;-84
2022/07/29 17:12:40;;;;;;;5.20;1.85;;;;;;;;;;5013308;28;20046;-83
2022/07/29 17:15:10;;;;;;;5.82;1.70;;;;;;;;;;4983458;28;20060;-82
2022/07/29 17:17:39;;;;;;;7.15;1.85;;;;;;;;;;5041844;28;20148;-82
2022/07/29 17:20:27;;;;;;;5.72;1.42;;;;;;;;;;5039717;28;20053;-84
2022/07/29 17:22:55;;;;;;;6.10;1.80;;;;;;;;;;5003055;28;20250;-85
2022/07/29 17:25:37;;;;;;;3.83;1.65;;;;;;;;;;5017019;28;20049;-83
2022/07/29 17:28:05;;;;;;;4.68;1.90;;;;;;;;;;5011356;28;20109;-83
2022/07/29 17:30:41;;;;;;;10.02;1.90;;;;;;;;;;5029273;28;20053;-84
2022/07/29 17:33:09;;;;;;;5.80;1.90;;;;;;;;;;5049117;28;20471;-83
2022/07/29 17:38:23;;;;;;;3.95;1.90;;;;;;;;;;5031383;28;20034;-84
2022/07/29 17:41:18;;;;;;;8.05;2.70;;;;;;;;;;5048808;28;20053;-84
2022/07/29 17:44:09;;;;;;;7.70;2.65;;;;;;;;;;5029069;28;20102;-83
2022/07/29 17:46:38;;;;;;;6.38;1.90;;;;;;;;;;5046417;28;20132;-83
2022/07/29 17:49:11;;;;;;;7.15;1.48;;;;;;;;;;5031390;28;20060;-83
2022/07/29 17:57:23;;;;;;;3.58;1.40;;;;;;;;;;5042821;28;20149;-84
2022/07/29 18:00:15;;;;;;;6.85;1.58;;;;;;;;;;5022730;28;20526;-85
2022/07/29 18:02:48;;;;;;;4.00;1.63;;;;;;;;;;5030774;28;20135;-85
2022/07/29 18:05:21;;;;;;;6.85;1.67;;;;;;;;;;5038046;28;20057;-85
2022/07/29 18:07:49;;;;;;;6.00;1.60;;;;;;;;;;5018892;28;20049;-85
2022/07/29 18:10:17;;;;;;;8.10;1.75;;;;;;;;;;5041466;28;20060;-85
2022/07/29 18:12:49;;;;;;;6.90;1.60;;;;;;;;;;5039898;28;20053;-85
2022/07/29 18:15:24;;;;;;;4.85;1.30;;;;;;;;;;5042809;28;20057;-86
2022/07/29 18:17:55;;;;;;;7.53;1.65;;;;;;;;;;5022956;28;20060;-83
2022/07/29 18:20:28;;;;;;;4.53;1.60;;;;;;;;;;5045489;28;20068;-83
2022/07/29 18:22:55;;;;;;;4.80;1.60;;;;;;;;;;5040770;28;20052;-83
2022/07/29 18:25:24;;;;;;;7.70;1.77;;;;;;;;;;5024712;28;20141;-85
2022/07/29 18:28:41;;;;;;;3.88;1.70;;;;;;;;;;5040334;28;20507;-83
2022/07/29 18:31:09;;;;;;;5.22;1.70;;;;;;;;;;5039591;28;20110;-83
2022/07/29 18:33:39;;;;;;;2.97;1.35;;;;;;;;;;5044034;28;20045;-85
2022/07/29 18:36:13;;;;;;;5.80;2.03;;;;;;;;;;5043251;28;20733;-84
2022/07/29 18:38:42;;;;;;;8.48;3.92;;;;;;;;;;5043707;28;20037;-85
2022/07/29 18:41:10;;;;;;;4.28;2.13;;;;;;;;;;5037713;28;20049;-86
2022/07/29 18:43:44;;;;;;;7.90;2.05;;;;;;;;;;5024950;28;20044;-85
2022/07/29 18:46:26;;;;;;;7.80;2.00;;;;;;;;;;5055266;28;20059;-85
2022/07/29 18:49:18;;;;;;;4.15;1.60;;;;;;;;;;5027201;28;20053;-86
2022/07/29 18:52:11;;;;;;;6.25;2.40;;;;;;;;;;5053059;28;20072;-86
2022/07/29 18:54:44;;;;;;;5.03;1.70;;;;;;;;;;5019164;28;20064;-85
2022/07/29 18:57:29;;;;;;;3.58;1.50;;;;;;;;;;5009486;28;20565;-85
2022/07/29 19:00:26;;;;;;;;;;;;;;;;;;5024767;28;20056;-85
2022/07/29 19:02:53;;;;;;;10.13;1.95;;;;;;;;;;5041987;28;20399;-85
2022/07/29 19:05:22;;;;;;;6.35;1.70;;;;;;;;;;5051040;28;20045;-84
2022/07/29 19:08:15;;;;;;;6.78;2.70;;;;;;;;;;5048112;28;20045;-85
2022/07/29 19:10:47;;;;;;;6.78;2.00;;;;;;;;;;5024395;28;20049;-86
2022/07/29 19:13:15;;;;;;;6.70;1.80;;;;;;;;;;5043757;28;20095;-86
2022/07/29 19:15:57;;;;;;;4.65;1.50;;;;;;;;;;5021527;28;20045;-86
2022/07/29 19:18:51;;;;;;;5.32;1.67;;;;;;;;;;5037017;28;20135;-86
2022/07/29 19:21:21;;;;;;;7.65;1.80;;;;;;;;;;5025319;28;20220;-85
2022/07/29 19:24:07;;;;;;;8.35;2.00;;;;;;;;;;5034480;28;20061;-86
2022/07/29 19:26:47;;;;;;;4.03;1.92;;;;;;;;;;5018497;28;20053;-84
2022/07/29 19:29:15;;;;;;;5.30;1.70;;;;;;;;;;5035906;28;20064;-84
2022/07/29 19:31:47;;;;;;;9.23;2.15;;;;;;;;;;5034169;28;20060;-84
2022/07/29 19:34:19;;;;;;;4.65;1.70;;;;;;;;;;5036063;28;20502;-83
2022/07/29 19:37:16;;;;;;;6.55;1.85;;;;;;;;;;5042709;28;20049;-84
2022/07/29 19:39:43;;;;;;;5.40;1.73;;;;;;;;;;5020893;28;20779;-85
2022/07/29 19:42:11;;;;;;;6.40;1.80;;;;;;;;;;5035652;28;20045;-84
2022/07/29 19:44:41;;;;;;;6.38;1.63;;;;;;;;;;5038552;28;20147;-88
2022/07/29 19:47:23;;;;;;;6.05;1.92;;;;;;;;;;5011612;28;20041;-85
2022/07/29 19:49:59;;;;;;;8.15;1.67;;;;;;;;;;5032558;28;20052;-88
2022/07/29 19:52:54;;;;;;;;;;;;;;;;;;5013192;28;20057;-87
2022/07/29 19:55:57;;;;;;;4.80;1.73;;;;;;;;;;4993423;28;19925;-86
2022/07/29 19:58:25;;;;;;;10.20;2.42;;;;;;;;;;4975638;28;20985;-85
2022/07/29 20:01:00;;;;;;;6.78;2.13;;;;;;;;;;4996517;28;20607;-85
2022/07/29 20:03:28;;;;;;;5.68;1.73;;;;;;;;;;4974210;28;20061;-85
2022/07/29 20:05:55;;;;;;;4.40;1.70;;;;;;;;;;4999949;28;20120;-85
2022/07/29 20:08:47;;;;;;;5.20;1.70;;;;;;;;;;4998738;28;20076;-85
2022/07/29 20:11:15;;;;;;;5.25;1.70;;;;;;;;;;5000784;28;20164;-84
2022/07/29 20:13:43;;;;;;;5.85;1.42;;;;;;;;;;5013811;28;20056;-85
2022/07/29 20:30:57;;;;;;;7.75;1.88;;;;;;;;;;4917461;29;20055;-84
2022/07/29 20:34:55;;;;;;;5.82;2.00;;;;;;;;;;4918330;29;20656;-86
2022/07/29 20:37:49;;;;;;;5.28;2.00;;;;;;;;;;4900103;29;20920;-86
2022/07/29 20:40:57;;;;;;;9.63;2.10;;;;;;;;;;4920038;29;20058;-84
2022/07/29 20:44:04;;;;;;;5.45;1.80;;;;;;;;;;4905238;29;20052;-84
2022/07/29 20:48:38;;;;;;;5.53;1.90;;;;;;;;;;4904469;29;20195;-85
2022/07/29 20:52:22;;;;;;;5.72;2.13;;;;;;;;;;4905384;29;20156;-85
2022/07/29 20:55:58;;;;;;;7.40;2.10;;;;;;;;;;4959404;28;20508;-85
2022/07/29 20:58:42;;;;;;;7.03;2.10;;;;;;;;;;4964536;28;20137;-85
2022/07/29 21:01:44;;;;;;;8.52;2.00;;;;;;;;;;4997317;28;20057;-85
2022/07/29 21:04:25;;;;;;;9.32;2.45;;;;;;;;;;4968881;28;20054;-85
2022/07/29 21:07:07;;;;;;;4.25;1.80;;;;;;;;;;4986721;28;20085;-84
2022/07/29 21:09:54;;;;;;;18.52;3.38;;;;;;;;;;4982150;28;20308;-84
2022/07/29 21:12:37;;;;;;;5.22;2.08;;;;;;;;;;4988638;28;20070;-84
2022/07/29 21:53:25;;;;;;;8.30;2.20;;;;;;;;;;5038880;28;20091;-85
2022/07/29 21:56:31;;;;;;;4.57;2.22;;;;;;;;;;5033384;28;20048;-84
2022/07/29 21:59:14;;;;;;;5.78;2.20;;;;;;;;;;5009899;28;20049;-84
2022/07/29 22:02:16;;;;;;;10.57;2.67;;;;;;;;;;5024358;28;20148;-84
2022/07/29 22:04:59;;;;;;;6.18;2.10;;;;;;;;;;5026651;28;20057;-84
2022/07/29 22:07:41;;;;;;;5.25;1.83;;;;;;;;;;5041293;28;20140;-84
2022/07/29 22:10:34;;;;;;;7.70;2.08;;;;;;;;;;5015747;28;20049;-85
2022/07/29 22:13:22;;;;;;;4.25;1.80;;;;;;;;;;5033541;28;20065;-84
2022/07/29 22:16:17;;;;;;;5.05;2.00;;;;;;;;;;5033715;28;20088;-85
2022/07/29 22:19:29;;;;;;;5.72;2.08;;;;;;;;;;5025700;28;20443;-85
2022/07/29 22:23:07;;;;;;;6.45;2.58;;;;;;;;;;5036514;28;20053;-84
2022/07/29 22:25:36;;;;;;;4.90;2.22;;;;;;;;;;5002101;28;20107;-84
2022/07/29 22:28:13;;;;;;;6.35;2.50;;;;;;;;;;5018126;28;20044;-84
2022/07/29 22:30:46;;;;;;;6.10;2.20;;;;;;;;;;5035678;28;20052;-84
2022/07/29 22:33:27;;;;;;;6.15;2.05;;;;;;;;;;5017772;28;20049;-84
2022/07/29 22:41:19;;;;;;;5.72;2.22;;;;;;;;;;5037812;28;20049;-85
2022/07/29 22:45:05;;;;;;;5.72;2.50;;;;;;;;;;5023497;28;20442;-85
2022/07/29 22:49:04;;;;;;;4.38;2.10;;;;;;;;;;4988223;28;20046;-85
2022/07/29 22:51:52;;;;;;;5.53;2.60;;;;;;;;;;4958056;28;20136;-85
2022/07/29 22:55:47;;;;;;;5.75;2.60;;;;;;;;;;4963014;28;20050;-85
2022/07/29 22:58:15;;;;;;;6.32;2.10;;;;;;;;;;4975478;28;20061;-83
2022/07/29 23:00:43;;;;;;;8.23;2.05;;;;;;;;;;4971286;28;20050;-84
2022/07/29 23:03:16;;;;;;;5.97;2.30;;;;;;;;;;4965052;28;21655;-84
2022/07/29 23:07:10;;;;;;;7.78;2.42;;;;;;;;;;4988750;28;20050;-85
2022/07/29 23:11:19;;;;;;;9.48;2.20;;;;;;;;;;4951412;28;20055;-84
2022/07/29 23:13:56;;;;;;;6.53;2.10;;;;;;;;;;4913965;28;20094;-85
2022/07/29 23:17:43;;;;;;;4.75;2.20;;;;;;;;;;4949986;28;20133;-85
2022/07/29 23:21:04;;;;;;;7.53;2.15;;;;;;;;;;4992315;28;20046;-84
2022/07/29 23:23:48;;;;;;;8.52;2.72;;;;;;;;;;4968841;28;20065;-85
2022/07/29 23:26:59;;;;;;;7.32;2.65;;;;;;;;;;4998287;28;20065;-85
2022/07/29 23:30:10;;;;;;;6.03;2.08;;;;;;;;;;4957888;28;20046;-85
2022/07/29 23:32:51;;;;;;;;;;;;;;;;;;4943462;28;20054;-83
2022/07/29 23:35:40;;;;;;;6.15;2.42;;;;;;;;;;4972407;28;19980;-85
2022/07/29 23:49:34;;;;;;;8.13;2.28;;;;;;;;;;4945713;28;20426;-86
2022/07/29 23:57:59;;;;;;;5.93;2.13;;;;;;;;;;4791530;29;20049;-85
